Time;durP1;ratioP1;P1;durP2;ratioP2;P2;SDS_P1;SDS_P2;PMS_P1;PMS_P2;Temp;Humidity;BMP_temperature;BMP_pressure;BME280_temperature;BME280_humidity;BME280_pressure;Samples;Min_cycle;Max_cycle;Signal;HPM_P1;HPM_P2
2021/01/02 00:02:25;;;;;;;;;;;;;;;-2.52;95.22;100353.56;6311485;22;19911;-74
2021/01/02 00:04:50;;;;;;;;;;;;;;;-2.54;95.37;100360.25;6312288;22;19903;-74
2021/01/02 00:07:40;;;;;;;;;;;;;;;-2.54;95.60;100363.81;6285233;22;19903;-74
2021/01/02 00:10:06;;;;;;;;;;;;;;;-2.56;95.66;100363.19;6284575;22;19903;-74
2021/01/02 00:12:34;;;;;;;;;;;;;;;-2.55;95.55;100364.88;6285266;22;19906;-74
2021/01/02 00:15:06;;;;;;;;;;;;;;;-2.59;95.55;100358.19;6285152;22;19930;-74
2021/01/02 00:17:44;;;;;;;;;;;;;;;-2.55;95.42;100362.16;6311702;22;20002;-74
2021/01/02 00:20:09;;;;;;;;;;;;;;;-2.54;95.51;100363.81;6311873;22;19910;-74
2021/01/02 00:22:50;;;;;;;;;;;;;;;-2.52;95.55;100363.59;6312148;22;20315;-74
2021/01/02 00:25:15;;;;;;;;;;;;;;;-2.52;95.61;100359.00;6312431;22;19903;-74
2021/01/02 00:27:54;;;;;;;;;;;;;;;-2.49;95.65;100357.75;6234362;22;20200;-74
2021/01/02 00:30:26;;;;;;;;;;;;;;;-2.52;95.63;100353.56;6312074;22;19902;-74
2021/01/02 00:32:54;;;;;;;;;;;;;;;-2.52;95.67;100350.00;6313991;22;19909;-74
2021/01/02 00:35:22;;;;;;;;;;;;;;;-2.54;95.66;100344.78;6313509;22;19906;-74
2021/01/02 00:38:04;;;;;;;;;;;;;;;-2.50;95.36;100343.31;6314596;22;19906;-74
2021/01/02 00:40:29;;;;;;;;;;;;;;;-2.50;95.45;100346.03;6261627;22;19907;-74
2021/01/02 00:42:55;;;;;;;;;;;;;;;-2.53;95.18;100351.91;6287235;22;19932;-74
2021/01/02 00:45:20;;;;;;;;;;;;;;;-2.56;95.12;100346.88;6286378;22;19965;-74
2021/01/02 00:47:47;;;;;;;;;;;;;;;-2.60;95.05;100342.91;6314313;22;19911;-74
2021/01/02 00:50:13;;;;;;;;;;;;;;;-2.60;95.01;100355.66;6261827;22;19909;-74
2021/01/02 00:52:38;;;;;;;;;;;;;;;-2.67;95.21;100358.41;6314073;22;19946;-74
2021/01/02 00:55:13;;;;;;;;;;;;;;;-2.65;94.88;100359.00;6286707;22;19909;-74
2021/01/02 00:58:05;;;;;;;;;;;;;;;-2.74;94.93;100363.84;6314075;22;19978;-74
2021/01/02 01:00:34;;;;;;;;;;;;;;;-2.73;94.67;100361.94;6280635;22;19913;-74
2021/01/02 01:03:09;;;;;;;;;;;;;;;-2.77;94.56;100363.44;6234875;22;20020;-74
2021/01/02 01:05:35;;;;;;;;;;;;;;;-2.83;94.58;100361.56;6313928;22;19903;-74
2021/01/02 01:08:00;;;;;;;;;;;;;;;-2.84;94.77;100360.72;6261025;22;19952;-74
2021/01/02 01:10:26;;;;;;;;;;;;;;;-2.85;94.51;100363.63;6286811;22;19909;-74
2021/01/02 01:12:58;;;;;;;;;;;;;;;-2.90;94.50;100360.72;6286632;22;19948;-74
2021/01/02 01:15:23;;;;;;;;;;;;;;;-2.98;94.57;100368.03;6313113;22;20274;-74
2021/01/02 01:17:55;;;;;;;;;;;;;;;-3.01;94.62;100360.31;6313763;22;19956;-74
2021/01/02 01:20:20;;;;;;;;;;;;;;;-3.02;94.52;100365.94;6260948;22;19907;-74
2021/01/02 01:22:50;;;;;;;;;;;;;;;-3.07;94.63;100372.00;6286783;22;19937;-74
2021/01/02 01:25:20;;;;;;;;;;;;;;;-3.09;94.84;100371.38;6261009;22;19993;-74
2021/01/02 01:27:51;;;;;;;;;;;;;;;-3.12;94.80;100370.94;6286194;22;19903;-74
2021/01/02 01:30:19;;;;;;;;;;;;;;;-3.17;94.60;100371.59;6260970;22;19907;-74
2021/01/02 01:32:44;;;;;;;;;;;;;;;-3.20;94.95;100375.56;6286402;22;20373;-74
2021/01/02 01:35:11;;;;;;;;;;;;;;;-3.23;94.91;100372.38;6285248;22;19906;-74
2021/01/02 01:37:36;;;;;;;;;;;;;;;-3.19;95.02;100379.94;6286492;22;19909;-74
2021/01/02 01:40:02;;;;;;;;;;;;;;;-3.27;95.01;100377.41;6235656;22;19902;-74
2021/01/02 01:42:40;;;;;;;;;;;;;;;-3.28;95.04;100380.34;6260894;22;19932;-74
2021/01/02 01:45:13;;;;;;;;;;;;;;;-3.29;95.04;100373.22;6235105;22;19903;-74
2021/01/02 01:47:42;;;;;;;;;;;;;;;-3.28;94.92;100380.34;6260597;22;19903;-74
2021/01/02 01:50:10;;;;;;;;;;;;;;;-3.32;95.00;100385.34;6313221;22;19918;-74
2021/01/02 01:52:50;;;;;;;;;;;;;;;-3.31;95.04;100384.31;6313766;22;19942;-74
2021/01/02 01:55:19;;;;;;;;;;;;;;;-3.34;95.16;100384.72;6260782;22;19909;-74
2021/01/02 01:57:45;;;;;;;;;;;;;;;-3.30;95.09;100382.44;6260513;22;20234;-74
2021/01/02 02:00:13;;;;;;;;;;;;;;;-3.37;95.28;100377.81;6285611;22;19990;-74
2021/01/02 02:02:38;;;;;;;;;;;;;;;-3.37;95.31;100393.28;6285731;22;20231;-74
2021/01/02 02:05:04;;;;;;;;;;;;;;;-3.39;95.18;100390.75;6260965;22;19903;-74
2021/01/02 02:07:50;;;;;;;;;;;;;;;-3.40;95.16;100386.38;6313202;22;19907;-74
2021/01/02 02:10:16;;;;;;;;;;;;;;;-3.43;94.95;100388.66;6264340;22;19909;-74
2021/01/02 02:12:51;;;;;;;;;;;;;;;-3.37;94.78;100385.97;6285801;22;19902;-74
2021/01/02 02:15:19;;;;;;;;;;;;;;;-3.44;95.17;100392.41;6313176;22;20378;-74
2021/01/02 02:17:45;;;;;;;;;;;;;;;-3.43;94.99;100392.19;6260224;22;19910;-74
2021/01/02 02:20:17;;;;;;;;;;;;;;;-3.46;94.84;100395.31;6285995;22;19903;-74
2021/01/02 02:22:43;;;;;;;;;;;;;;;-3.50;94.91;100393.25;6312940;22;19945;-74
2021/01/02 02:25:09;;;;;;;;;;;;;;;-3.49;94.78;100397.63;6285953;22;20307;-74
2021/01/02 02:27:35;;;;;;;;;;;;;;;-3.52;94.93;100401.59;6286497;22;19903;-74
2021/01/02 02:30:04;;;;;;;;;;;;;;;-3.50;94.77;100398.69;6234615;22;19903;-74
2021/01/02 02:32:30;;;;;;;;;;;;;;;-3.48;94.56;100396.56;6259843;22;20335;-74
2021/01/02 02:34:55;;;;;;;;;;;;;;;-3.50;94.47;100404.94;6285028;22;20212;-74
2021/01/02 02:37:21;;;;;;;;;;;;;;;-3.58;94.88;100401.56;6286166;22;19913;-74
2021/01/02 02:39:46;;;;;;;;;;;;;;;-3.60;95.15;100399.88;6312991;22;19955;-74
2021/01/02 02:42:11;;;;;;;;;;;;;;;-3.59;95.01;100406.16;6285591;22;19907;-74
2021/01/02 02:44:37;;;;;;;;;;;;;;;-3.63;94.99;100410.31;6260092;22;20367;-74
2021/01/02 02:47:02;;;;;;;;;;;;;;;-3.60;94.85;100407.19;6312521;22;19902;-74
2021/01/02 02:49:31;;;;;;;;;;;;;;;-3.65;94.85;100409.69;6234977;22;19903;-73
2021/01/02 02:52:00;;;;;;;;;;;;;;;-3.69;94.90;100416.56;6260228;22;19903;-74
2021/01/02 02:54:25;;;;;;;;;;;;;;;-3.71;94.77;100414.03;6312385;22;19917;-74
2021/01/02 02:56:50;;;;;;;;;;;;;;;-3.74;94.56;100413.63;6285735;22;19903;-74
2021/01/02 02:59:16;;;;;;;;;;;;;;;-3.76;94.56;100421.97;6285294;22;19985;-74
2021/01/02 03:01:41;;;;;;;;;;;;;;;-3.76;94.32;100415.69;6311617;22;19991;-74
2021/01/02 03:04:06;;;;;;;;;;;;;;;-3.79;94.43;100421.53;6285385;22;20349;-74
2021/01/02 03:06:32;;;;;;;;;;;;;;;-3.84;94.37;100419.44;6285863;22;19952;-73
2021/01/02 03:08:57;;;;;;;;;;;;;;;-3.86;94.31;100411.50;6285082;22;19912;-74
2021/01/02 03:11:25;;;;;;;;;;;;;;;-3.90;94.49;100415.66;6312985;22;19910;-74
2021/01/02 03:13:53;;;;;;;;;;;;;;;-3.90;94.33;100420.22;6285850;22;19903;-74
2021/01/02 03:16:19;;;;;;;;;;;;;;;-3.94;94.24;100408.13;6259615;22;19977;-73
2021/01/02 03:18:44;;;;;;;;;;;;;;;-3.95;94.12;100418.13;6285172;22;19914;-73
2021/01/02 03:21:10;;;;;;;;;;;;;;;-4.00;94.21;100420.59;6312150;22;19985;-74
2021/01/02 03:23:45;;;;;;;;;;;;;;;-4.03;94.12;100415.59;6260308;22;19909;-74
2021/01/02 03:26:11;;;;;;;;;;;;;;;-4.05;94.00;100417.66;6260268;22;20232;-73
2021/01/02 03:28:36;;;;;;;;;;;;;;;-4.03;94.10;100410.16;6259670;22;19903;-74
2021/01/02 03:31:02;;;;;;;;;;;;;;;-4.11;93.95;100411.16;6258948;22;19910;-73
2021/01/02 03:33:28;;;;;;;;;;;;;;;-4.13;94.09;100410.50;6259046;22;19907;-74
2021/01/02 03:36:00;;;;;;;;;;;;;;;-4.19;94.18;100408.59;6285527;22;20009;-74
2021/01/02 03:38:26;;;;;;;;;;;;;;;-4.20;94.19;100409.66;6312611;22;19903;-74
2021/01/02 03:40:51;;;;;;;;;;;;;;;-4.20;94.16;100408.81;6285217;22;20287;-74
2021/01/02 03:43:17;;;;;;;;;;;;;;;-4.27;93.91;100415.03;6284877;22;19917;-74
2021/01/02 03:45:42;;;;;;;;;;;;;;;-4.26;94.08;100413.16;6234339;22;19907;-74
2021/01/02 03:48:08;;;;;;;;;;;;;;;-4.28;93.77;100417.94;6284949;22;19907;-74
2021/01/02 03:50:33;;;;;;;;;;;;;;;-4.32;93.93;100409.38;6312347;22;19926;-74
2021/01/02 03:52:58;;;;;;;;;;;;;;;-4.35;93.92;100414.34;6259235;22;19953;-74
2021/01/02 03:55:23;;;;;;;;;;;;;;;-4.35;nan;100407.03;6259824;22;20379;-74
2021/01/02 03:57:49;;;;;;;;;;;;;;;-4.39;93.94;100416.63;6259686;22;19909;-74
2021/01/02 04:00:15;;;;;;;;;;;;;;;-4.43;94.21;100412.66;6284541;22;19903;-73
2021/01/02 04:02:40;;;;;;;;;;;;;;;-4.45;94.25;100408.47;6311380;22;19942;-73
2021/01/02 04:05:06;;;;;;;;;;;;;;;-4.45;94.04;100414.72;6286415;22;19909;-73
2021/01/02 04:07:31;;;;;;;;;;;;;;;-4.48;94.06;100417.81;6288515;22;19935;-73
2021/01/02 04:09:56;;;;;;;;;;;;;;;-4.48;94.11;100417.81;6315699;22;19903;-73
2021/01/02 04:12:22;;;;;;;;;;;;;;;-4.43;94.74;100422.63;6316097;22;19945;-72
2021/01/02 04:14:47;;;;;;;;;;;;;;;-4.44;94.29;100412.84;6288764;22;19914;-73
2021/01/02 04:17:12;;;;;;;;;;;;;;;-4.48;94.41;100412.41;6287647;22;19902;-73
2021/01/02 04:19:38;;;;;;;;;;;;;;;-4.49;93.78;100416.97;6315653;22;19925;-73
2021/01/02 04:22:03;;;;;;;;;;;;;;;-4.48;93.73;100406.97;6315495;22;19907;-73
2021/01/02 04:24:28;;;;;;;;;;;;;;;-4.41;94.63;100409.72;6288661;22;19903;-73
2021/01/02 04:27:00;;;;;;;;;;;;;;;-4.46;94.25;100406.75;6263099;22;20307;-73
2021/01/02 04:29:26;;;;;;;;;;;;;;;-4.53;94.22;100414.88;6288200;22;19903;-73
2021/01/02 04:31:53;;;;;;;;;;;;;;;-4.48;93.80;100417.81;6314864;22;19902;-73
2021/01/02 04:34:18;;;;;;;;;;;;;;;-4.53;93.95;100420.28;6315096;22;19971;-73
2021/01/02 04:36:43;;;;;;;;;;;;;;;-4.57;94.10;100417.13;6262908;22;19982;-73
2021/01/02 04:39:09;;;;;;;;;;;;;;;-4.60;93.80;100419.38;6288253;22;19938;-73
2021/01/02 04:41:34;;;;;;;;;;;;;;;-4.61;93.63;100423.13;6262440;22;19906;-74
2021/01/02 04:43:59;;;;;;;;;;;;;;;-4.61;93.71;100421.25;6262727;22;19903;-73
2021/01/02 04:46:25;;;;;;;;;;;;;;;-4.61;93.70;100417.72;6315411;22;19949;-74
2021/01/02 04:48:50;;;;;;;;;;;;;;;-4.63;93.48;100419.78;6287970;22;19910;-73
2021/01/02 04:51:16;;;;;;;;;;;;;;;-4.65;93.33;100433.53;6315576;22;20326;-73
2021/01/02 04:53:41;;;;;;;;;;;;;;;-4.67;93.50;100426.66;6263335;22;19930;-73
2021/01/02 04:56:07;;;;;;;;;;;;;;;-4.71;93.36;100426.19;6315678;22;19903;-73
2021/01/02 04:58:37;;;;;;;;;;;;;;;-4.72;93.53;100427.22;6315165;22;20461;-74
2021/01/02 05:01:05;;;;;;;;;;;;;;;-4.74;93.40;100427.41;6239188;22;19919;-74
2021/01/02 05:03:32;;;;;;;;;;;;;;;-4.78;93.24;100428.84;6290079;22;19907;-74
2021/01/02 05:05:58;;;;;;;;;;;;;;;-4.77;93.17;100435.09;6264913;22;19929;-74
2021/01/02 05:08:23;;;;;;;;;;;;;;;-4.83;93.30;100435.88;6240289;22;19902;-74
2021/01/02 05:10:59;;;;;;;;;;;;;;;-4.82;93.17;100437.53;6237788;22;19903;-73
2021/01/02 05:13:31;;;;;;;;;;;;;;;-4.83;93.24;100433.19;6315542;22;19909;-73
2021/01/02 05:16:11;;;;;;;;;;;;;;;-4.84;93.28;100434.22;6315302;22;19929;-73
2021/01/02 05:18:50;;;;;;;;;;;;;;;-4.90;93.18;100430.41;6286470;22;19902;-73
2021/01/02 05:21:15;;;;;;;;;;;;;;;-4.91;93.41;100433.31;6260738;22;19946;-73
2021/01/02 05:23:41;;;;;;;;;;;;;;;-4.96;93.30;100436.59;6261502;22;20331;-73
2021/01/02 05:26:09;;;;;;;;;;;;;;;-4.97;93.27;100432.22;6235794;22;19903;-74
2021/01/02 05:28:34;;;;;;;;;;;;;;;-4.93;93.15;100436.22;6236103;22;19922;-73
2021/01/02 05:31:04;;;;;;;;;;;;;;;-5.00;93.01;100441.56;6285554;22;19903;-73
2021/01/02 05:33:29;;;;;;;;;;;;;;;-4.97;93.06;100440.34;6260096;22;20433;-74
2021/01/02 05:35:54;;;;;;;;;;;;;;;-5.04;93.13;100443.00;6314281;22;20304;-73
2021/01/02 05:38:21;;;;;;;;;;;;;;;-4.99;92.89;100447.81;6261070;22;19903;-73
2021/01/02 05:40:49;;;;;;;;;;;;;;;-5.07;92.99;100442.53;6260957;22;19907;-73
2021/01/02 05:43:15;;;;;;;;;;;;;;;-5.06;92.95;100438.81;6313844;22;19907;-73
2021/01/02 05:45:40;;;;;;;;;;;;;;;-5.07;93.20;100442.53;6286149;22;20380;-73
2021/01/02 05:48:12;;;;;;;;;;;;;;;-5.13;93.06;100443.31;6313459;22;19910;-73
2021/01/02 05:50:41;;;;;;;;;;;;;;;-5.12;93.15;100455.84;6313352;22;19902;-73
2021/01/02 05:53:15;;;;;;;;;;;;;;;-5.08;92.76;100457.13;6313293;22;19907;-74
2021/01/02 05:55:41;;;;;;;;;;;;;;;-5.19;93.02;100456.59;6260647;22;19902;-73
2021/01/02 05:58:16;;;;;;;;;;;;;;;-5.13;92.79;100456.84;6286117;22;19928;-74
2021/01/02 06:00:45;;;;;;;;;;;;;;;-5.18;92.85;100450.16;6312914;22;19907;-73
2021/01/02 06:03:40;;;;;;;;;;;;;;;-5.26;93.05;100452.97;6282190;22;19918;-73
2021/01/02 06:06:07;;;;;;;;;;;;;;;-5.23;92.92;100447.19;6249564;22;19903;-73
2021/01/02 06:08:32;;;;;;;;;;;;;;;-5.19;94.46;100453.88;6282212;22;19925;-73
2021/01/02 06:11:01;;;;;;;;;;;;;;;-5.14;93.86;100455.19;6282425;22;20275;-73
2021/01/02 06:13:30;;;;;;;;;;;;;;;-5.14;93.50;100453.31;6255194;22;19986;-73
2021/01/02 06:16:00;;;;;;;;;;;;;;;-5.12;93.12;100453.97;6229403;22;20304;-73
2021/01/02 06:18:26;;;;;;;;;;;;;;;-5.23;93.26;100451.75;6282161;22;19907;-74
2021/01/02 06:20:52;;;;;;;;;;;;;;;-5.22;93.28;100459.69;6255392;22;19910;-73
2021/01/02 06:23:17;;;;;;;;;;;;;;;-5.21;92.96;100457.81;6255436;22;19938;-73
2021/01/02 06:25:43;;;;;;;;;;;;;;;-5.28;93.08;100460.44;6282227;22;19946;-73
2021/01/02 06:28:08;;;;;;;;;;;;;;;-5.29;93.22;100469.63;6254806;22;20311;-73
2021/01/02 06:30:33;;;;;;;;;;;;;;;-5.24;92.89;100469.88;6229774;22;19969;-73
2021/01/02 06:32:58;;;;;;;;;;;;;;;-5.30;92.98;100467.09;6254969;22;19903;-73
2021/01/02 06:35:24;;;;;;;;;;;;;;;-5.26;92.87;100474.66;6253733;22;19903;-73
2021/01/02 06:37:50;;;;;;;;;;;;;;;-5.26;92.92;100474.66;6282071;22;19907;-73
2021/01/02 06:40:28;;;;;;;;;;;;;;;-5.28;92.62;100474.00;6255055;22;20235;-73
2021/01/02 06:43:00;;;;;;;;;;;;;;;-5.34;92.82;100472.06;6230365;22;19907;-73
2021/01/02 06:45:34;;;;;;;;;;;;;;;-5.36;92.75;100476.81;6254125;22;19945;-73
2021/01/02 06:48:17;;;;;;;;;;;;;;;-5.38;92.92;100476.16;6254552;22;19902;-73
2021/01/02 06:50:45;;;;;;;;;;;;;;;-5.40;92.82;100473.66;6229298;22;19903;-73
2021/01/02 06:53:18;;;;;;;;;;;;;;;-5.42;92.78;100474.88;6254970;22;19947;-73
2021/01/02 06:55:43;;;;;;;;;;;;;;;-5.41;92.63;100471.97;6255282;22;20001;-73
2021/01/02 06:58:15;;;;;;;;;;;;;;;-5.47;92.86;100478.13;6255157;22;19903;-73
2021/01/02 07:00:40;;;;;;;;;;;;;;;-5.46;92.75;100476.25;6228764;22;19911;-73
2021/01/02 07:03:06;;;;;;;;;;;;;;;-5.49;92.85;100473.94;6285130;22;19933;-73
2021/01/02 07:05:47;;;;;;;;;;;;;;;-5.46;92.88;100476.25;6285800;22;20299;-73
2021/01/02 07:08:31;;;;;;;;;;;;;;;-5.48;92.86;100471.06;6260268;22;19903;-73
2021/01/02 07:11:15;;;;;;;;;;;;;;;-5.50;93.35;100485.81;6312299;22;19902;-73
2021/01/02 07:13:40;;;;;;;;;;;;;;;-5.53;93.81;100495.16;6285471;22;19903;-73
2021/01/02 07:16:26;;;;;;;;;;;;;;;-5.51;93.97;100495.81;6259246;22;19986;-73
2021/01/02 07:18:51;;;;;;;;;;;;;;;-5.43;93.73;100503.81;6285682;22;20312;-73
2021/01/02 07:21:33;;;;;;;;;;;;;;;-5.42;94.07;100501.94;6259739;22;19906;-73
2021/01/02 07:24:18;;;;;;;;;;;;;;;-5.42;94.37;100502.78;6312691;22;19907;-73
2021/01/02 07:26:44;;;;;;;;;;;;;;;-5.36;94.74;100509.28;6311713;22;19907;-73
2021/01/02 07:29:18;;;;;;;;;;;;;;;-5.33;94.65;100511.63;6312586;22;19941;-73
2021/01/02 07:31:44;;;;;;;;;;;;;;;-5.27;94.64;100500.03;6312282;22;19903;-73
2021/01/02 07:34:22;;;;;;;;;;;;;;;-5.23;94.74;100503.22;6284279;22;19952;-73
2021/01/02 07:36:47;;;;;;;;;;;;;;;-5.17;94.76;100499.72;6312463;22;20339;-73
2021/01/02 07:39:13;;;;;;;;;;;;;;;-5.11;95.01;100498.97;6259449;22;19903;-73
2021/01/02 07:41:39;;;;;;;;;;;;;;;-5.05;95.14;100503.59;6285133;22;20302;-73
2021/01/02 07:44:04;;;;;;;;;;;;;;;-4.95;94.87;100506.84;6285310;22;19926;-73
2021/01/02 07:46:33;;;;;;;;;;;;;;;-4.93;95.00;100512.06;6284264;22;19913;-73
2021/01/02 07:48:59;;;;;;;;;;;;;;;-4.90;95.14;100518.94;6284993;22;19930;-73
2021/01/02 07:51:25;;;;;;;;;;;;;;;-4.87;95.24;100524.84;6259904;22;19910;-73
2021/01/02 07:53:53;;;;;;;;;;;;;;;-4.84;95.18;100516.34;6259591;22;19903;-73
2021/01/02 07:56:34;;;;;;;;;;;;;;;-4.78;95.33;100518.25;6284760;22;20369;-73
2021/01/02 07:59:20;;;;;;;;;;;;;;;-4.67;95.34;100530.47;6259356;22;20227;-74
2021/01/02 08:01:59;;;;;;;;;;;;;;;-4.67;95.27;100525.03;6242487;22;19914;-74
2021/01/02 08:04:24;;;;;;;;;;;;;;;-4.60;95.26;100527.78;6259855;22;19903;-73
2021/01/02 08:06:50;;;;;;;;;;;;;;;-4.54;95.47;100532.44;6259863;22;20227;-73
2021/01/02 08:09:15;;;;;;;;;;;;;;;-4.48;95.38;100526.25;6312118;22;19903;-73
2021/01/02 08:12:10;;;;;;;;;;;;;;;-4.45;95.30;100531.28;6284868;22;20212;-73
2021/01/02 08:14:37;;;;;;;;;;;;;;;-4.44;95.55;100532.94;6258870;22;19910;-73
2021/01/02 08:17:03;;;;;;;;;;;;;;;-4.34;95.82;100536.19;6258898;22;19907;-73
2021/01/02 08:19:32;;;;;;;;;;;;;;;-4.33;96.06;100545.97;6234075;22;19910;-74
2021/01/02 08:21:58;;;;;;;;;;;;;;;-4.32;96.17;100547.66;6284806;22;19915;-73
2021/01/02 08:24:23;;;;;;;;;;;;;;;-4.28;96.20;100538.09;6284731;22;19915;-73
2021/01/02 08:26:49;;;;;;;;;;;;;;;-4.22;96.26;100541.06;6312509;22;19910;-74
2021/01/02 08:29:14;;;;;;;;;;;;;;;-4.18;96.39;100545.91;6259349;22;19909;-74
2021/01/02 08:31:47;;;;;;;;;;;;;;;-4.14;96.26;100547.19;6283857;22;19903;-73
2021/01/02 08:34:13;;;;;;;;;;;;;;;-4.06;96.04;100547.03;6283946;22;20339;-74
2021/01/02 08:36:42;;;;;;;;;;;;;;;-4.00;96.04;100550.00;6312345;22;19911;-74
2021/01/02 08:39:07;;;;;;;;;;;;;;;-3.98;95.92;100543.34;6259705;22;19906;-74
2021/01/02 08:41:33;;;;;;;;;;;;;;;-3.94;95.75;100541.06;6311867;22;19964;-74
2021/01/02 08:43:58;;;;;;;;;;;;;;;-3.93;95.78;100542.72;6284777;22;19952;-73
2021/01/02 08:46:23;;;;;;;;;;;;;;;-3.95;95.66;100548.38;6311341;22;19957;-74
2021/01/02 08:48:49;;;;;;;;;;;;;;;-3.88;95.45;100551.13;6259146;22;20032;-74
2021/01/02 08:51:21;;;;;;;;;;;;;;;-3.90;95.43;100554.03;6258806;22;19902;-74
2021/01/02 08:53:46;;;;;;;;;;;;;;;-3.93;95.63;100565.28;6286298;22;19907;-74
2021/01/02 08:56:22;;;;;;;;;;;;;;;-3.93;95.64;100565.28;6286606;22;19909;-74
2021/01/02 08:58:47;;;;;;;;;;;;;;;-3.92;95.69;100569.66;6286649;22;20315;-74
2021/01/02 09:01:12;;;;;;;;;;;;;;;-3.88;95.64;100564.69;6312871;22;20001;-74
2021/01/02 09:03:38;;;;;;;;;;;;;;;-3.86;95.89;100557.19;6260829;22;19914;-74
2021/01/02 09:06:19;;;;;;;;;;;;;;;-3.85;96.17;100564.28;6235742;22;19903;-74
2021/01/02 09:08:44;;;;;;;;;;;;;;;-3.80;95.98;100558.25;6313046;22;19909;-74
2021/01/02 09:11:10;;;;;;;;;;;;;;;-3.75;96.16;100563.94;6286020;22;19942;-74
2021/01/02 09:13:36;;;;;;;;;;;;;;;-3.68;96.29;100567.53;6313821;22;20337;-74
2021/01/02 09:16:02;;;;;;;;;;;;;;;-3.62;96.37;100572.19;6310738;22;19926;-74
2021/01/02 09:18:27;;;;;;;;;;;;;;;-3.53;96.32;100562.00;6286591;22;19910;-74
2021/01/02 09:20:52;;;;;;;;;;;;;;;-3.44;96.74;100564.31;6285415;22;19910;-74
2021/01/02 09:23:30;;;;;;;;;;;;;;;-3.32;97.21;100569.19;6312899;22;20282;-74
2021/01/02 09:25:55;;;;;;;;;;;;;;;-3.19;97.85;100570.09;6285906;22;19990;-74
2021/01/02 09:28:20;;;;;;;;;;;;;;;-3.08;98.12;100571.38;6313787;22;19903;-75
2021/01/02 09:30:46;;;;;;;;;;;;;;;-2.96;97.88;100575.19;6284966;22;19902;-74
2021/01/02 09:33:12;;;;;;;;;;;;;;;-2.82;97.77;100567.06;6285036;22;19902;-74
2021/01/02 09:35:38;;;;;;;;;;;;;;;-2.71;98.17;100570.03;6260511;22;19906;-74
2021/01/02 09:38:03;;;;;;;;;;;;;;;-2.58;98.49;100582.81;6286252;22;19907;-74
2021/01/02 09:40:29;;;;;;;;;;;;;;;-2.47;98.23;100571.34;6259759;22;19913;-74
2021/01/02 09:42:54;;;;;;;;;;;;;;;-2.33;98.27;100568.63;6313448;22;19925;-74
2021/01/02 09:45:19;;;;;;;;;;;;;;;-2.23;97.77;100562.78;6285653;22;19907;-74
2021/01/02 09:47:44;;;;;;;;;;;;;;;-2.12;97.40;100565.69;6312823;22;19977;-74
2021/01/02 09:50:10;;;;;;;;;;;;;;;-2.03;97.09;100575.34;6284294;22;19909;-74
2021/01/02 09:52:35;;;;;;;;;;;;;;;-1.92;97.56;100579.31;6312802;22;19954;-74
2021/01/02 09:55:01;;;;;;;;;;;;;;;-1.81;98.42;100583.31;6285915;22;19902;-74
2021/01/02 09:57:26;;;;;;;;;;;;;;;-1.71;98.07;100583.69;6311830;22;19903;-74
2021/01/02 09:59:52;;;;;;;;;;;;;;;-1.60;97.50;100580.31;6312687;22;19909;-74
2021/01/02 10:02:26;;;;;;;;;;;;;;;-1.49;96.99;100580.72;6312210;22;19921;-75
2021/01/02 10:04:51;;;;;;;;;;;;;;;-1.40;96.34;100582.16;6285644;22;19933;-74
2021/01/02 10:07:17;;;;;;;;;;;;;;;-1.31;95.82;100575.44;6285277;22;19903;-74
2021/01/02 10:09:43;;;;;;;;;;;;;;;-1.21;95.52;100581.25;6313122;22;20276;-75
2021/01/02 10:12:08;;;;;;;;;;;;;;;-1.09;95.38;100584.13;6312920;22;20249;-74
2021/01/02 10:14:34;;;;;;;;;;;;;;;-0.99;95.45;100584.53;6285533;22;19903;-74
2021/01/02 10:16:59;;;;;;;;;;;;;;;-0.88;95.43;100583.03;6312314;22;20296;-74
2021/01/02 10:19:24;;;;;;;;;;;;;;;-0.76;95.35;100585.88;6313277;22;19937;-75
2021/01/02 10:21:50;;;;;;;;;;;;;;;-0.66;94.92;100591.72;6285365;22;19907;-75
2021/01/02 10:24:15;;;;;;;;;;;;;;;-0.56;94.97;100588.50;6259773;22;19945;-74
2021/01/02 10:26:40;;;;;;;;;;;;;;;-0.48;95.79;100599.16;6284894;22;19903;-74
2021/01/02 10:29:06;;;;;;;;;;;;;;;-0.40;95.61;100601.63;6285724;22;19902;-74
2021/01/02 10:31:31;;;;;;;;;;;;;;;-0.34;95.71;100600.75;6284357;22;20308;-74
2021/01/02 10:33:56;;;;;;;;;;;;;;;-0.29;95.91;100598.19;6311929;22;20227;-74
2021/01/02 10:36:22;;;;;;;;;;;;;;;-0.24;95.47;100606.56;6313107;22;19910;-74
2021/01/02 10:38:47;;;;;;;;;;;;;;;-0.16;94.87;100591.81;6235027;22;20294;-74
2021/01/02 10:41:15;;;;;;;;;;;;;;;-0.08;94.79;100588.81;6284775;22;19907;-75
2021/01/02 10:43:40;;;;;;;;;;;;;;;0.03;95.51;100580.94;6312658;22;19941;-76
2021/01/02 10:46:06;;;;;;;;;;;;;;;0.13;94.37;100579.38;6312459;22;19906;-74
2021/01/02 10:48:31;;;;;;;;;;;;;;;0.27;94.42;100579.28;6284713;22;19903;-75
2021/01/02 10:50:57;;;;;;;;;;;;;;;0.38;94.58;100578.53;6285264;22;20331;-74
2021/01/02 10:53:22;;;;;;;;;;;;;;;0.50;96.12;100573.97;6285201;22;19964;-74
2021/01/02 10:55:47;;;;;;;;;;;;;;;0.61;96.79;100573.25;6312774;22;19913;-74
2021/01/02 10:58:14;;;;;;;;;;;;;;;0.71;96.71;100569.16;6312204;22;19909;-74
2021/01/02 11:00:39;;;;;;;;;;;;;;;0.80;96.73;100556.84;6284624;22;19934;-74
2021/01/02 11:03:05;;;;;;;;;;;;;;;0.86;96.74;100555.91;6284987;22;19964;-74
2021/01/02 11:05:30;;;;;;;;;;;;;;;0.92;95.69;100557.78;6285162;22;19910;-75
2021/01/02 11:07:55;;;;;;;;;;;;;;;0.97;96.76;100557.88;6312115;22;19910;-74
2021/01/02 11:10:22;;;;;;;;;;;;;;;1.03;97.34;100551.53;6312375;22;19910;-75
2021/01/02 11:12:47;;;;;;;;;;;;;;;1.06;96.52;100553.78;6312321;22;20315;-74
2021/01/02 11:15:13;;;;;;;;;;;;;;;1.11;96.20;100555.81;6284277;22;19970;-74
2021/01/02 11:17:39;;;;;;;;;;;;;;;1.16;96.01;100558.69;6311999;22;19910;-74
2021/01/02 11:20:05;;;;;;;;;;;;;;;1.19;95.49;100554.66;6312454;22;20503;-74
2021/01/02 11:22:31;;;;;;;;;;;;;;;1.26;94.30;100555.44;6311970;22;19960;-74
2021/01/02 11:24:56;;;;;;;;;;;;;;;1.27;95.00;100557.09;6312282;22;19936;-74
2021/01/02 11:27:21;;;;;;;;;;;;;;;1.36;95.09;100557.59;6312343;22;20016;-75
2021/01/02 11:29:47;;;;;;;;;;;;;;;1.39;96.10;100549.75;6312207;22;19903;-74
2021/01/02 11:32:12;;;;;;;;;;;;;;;1.44;96.75;100547.16;6310481;22;19903;-74
2021/01/02 11:34:38;;;;;;;;;;;;;;;1.47;96.46;100549.41;6310444;22;19945;-75
2021/01/02 11:37:04;;;;;;;;;;;;;;;1.50;96.47;100545.38;6283365;22;20235;-74
2021/01/02 11:39:30;;;;;;;;;;;;;;;1.55;97.18;100540.88;6281746;22;20425;-77
2021/01/02 11:41:56;;;;;;;;;;;;;;;1.62;98.16;100538.06;6311113;22;19907;-74
2021/01/02 11:44:22;;;;;;;;;;;;;;;1.68;98.99;100539.03;6282422;22;19952;-74
2021/01/02 11:46:47;;;;;;;;;;;;;;;1.75;98.42;100532.34;6284270;22;19910;-74
2021/01/02 11:49:14;;;;;;;;;;;;;;;1.84;97.75;100532.88;6311749;22;19902;-74
2021/01/02 11:51:40;;;;;;;;;;;;;;;1.95;99.15;100529.31;6284752;22;20802;-74
2021/01/02 11:54:05;;;;;;;;;;;;;;;2.01;98.75;100525.63;6312311;22;19906;-76
2021/01/02 11:56:31;;;;;;;;;;;;;;;2.10;98.45;100525.25;6311243;22;19913;-74
2021/01/02 11:58:57;;;;;;;;;;;;;;;2.16;98.04;100516.91;6311566;22;19907;-74
2021/01/02 12:01:22;;;;;;;;;;;;;;;2.20;97.16;100509.03;6258460;22;19915;-74
2021/01/02 12:03:48;;;;;;;;;;;;;;;2.28;97.79;100510.59;6312483;22;19950;-74
2021/01/02 12:06:13;;;;;;;;;;;;;;;2.33;95.80;100521.69;6312123;22;19909;-75
2021/01/02 12:08:39;;;;;;;;;;;;;;;2.38;95.34;100519.88;6284441;22;19909;-74
2021/01/02 12:11:06;;;;;;;;;;;;;;;2.43;95.08;100517.25;6284907;22;19972;-74
2021/01/02 12:13:31;;;;;;;;;;;;;;;2.45;95.32;100514.25;6312123;22;19914;-74
2021/01/02 12:15:57;;;;;;;;;;;;;;;2.48;94.36;100508.31;6311609;22;19903;-74
2021/01/02 12:18:22;;;;;;;;;;;;;;;2.51;94.36;100507.84;6284643;22;19910;-74
2021/01/02 12:20:49;;;;;;;;;;;;;;;2.53;93.61;100505.66;6284863;22;19911;-74
2021/01/02 12:23:14;;;;;;;;;;;;;;;2.56;93.48;100498.88;6312455;22;19903;-75
2021/01/02 12:25:39;;;;;;;;;;;;;;;2.57;92.76;100500.56;6284822;22;20343;-75
2021/01/02 12:28:05;;;;;;;;;;;;;;;2.60;93.07;100495.41;6314199;22;19903;-75
2021/01/02 12:30:30;;;;;;;;;;;;;;;2.62;92.19;100495.19;6313917;22;19977;-75
2021/01/02 12:32:56;;;;;;;;;;;;;;;2.64;92.01;100495.75;6286752;22;19903;-75
2021/01/02 12:35:21;;;;;;;;;;;;;;;2.66;92.20;100501.84;6260671;22;19947;-75
2021/01/02 12:37:47;;;;;;;;;;;;;;;2.68;92.14;100496.97;6314451;22;19968;-75
2021/01/02 12:40:12;;;;;;;;;;;;;;;2.71;91.46;100485.50;6287375;22;19903;-75
2021/01/02 12:42:38;;;;;;;;;;;;;;;2.74;91.56;100487.75;6236330;22;20445;-74